Time;durP1;ratioP1;P1;durP2;ratioP2;P2;SDS_P1;SDS_P2;PMS_P1;PMS_P2;Temp;Humidity;BMP_temperature;BMP_pressure;BME280_temperature;BME280_humidity;BME280_pressure;Samples;Min_cycle;Max_cycle;Signal;HPM_P1;HPM_P2
2023/08/11 00:02:14;;;;;;;5.90;3.72;;;17.70;75.30;;;;;;4939692;28;20328;-63
2023/08/11 00:04:39;;;;;;;5.55;3.97;;;17.70;75.70;;;;;;4941426;28;20532;-63
2023/08/11 00:07:05;;;;;;;7.45;4.18;;;17.60;76.10;;;;;;4937412;28;20031;-63
2023/08/11 00:09:30;;;;;;;7.85;3.90;;;17.60;76.20;;;;;;4939270;28;20043;-62
2023/08/11 00:11:56;;;;;;;10.35;4.03;;;17.50;76.30;;;;;;4941737;28;20157;-62
2023/08/11 00:14:22;;;;;;;5.97;3.92;;;17.60;76.50;;;;;;4939584;28;20035;-62
2023/08/11 00:16:47;;;;;;;5.55;3.78;;;17.60;76.50;;;;;;4937368;28;20149;-62
2023/08/11 00:19:13;;;;;;;5.32;3.92;;;17.60;76.30;;;;;;4936061;28;20043;-63
2023/08/11 00:21:38;;;;;;;7.20;4.00;;;17.60;76.50;;;;;;4939967;28;20558;-62
2023/08/11 00:24:04;;;;;;;9.18;4.00;;;17.60;76.30;;;;;;4936897;28;20134;-63
2023/08/11 00:26:30;;;;;;;7.28;4.38;;;17.60;76.30;;;;;;4937241;28;20039;-62
2023/08/11 00:28:56;;;;;;;4.68;3.85;;;17.60;77.20;;;;;;4937881;28;20042;-61
2023/08/11 00:31:22;;;;;;;7.47;3.88;;;17.60;76.30;;;;;;4937607;28;20035;-62
2023/08/11 00:33:51;;;;;;;6.95;3.65;;;17.60;76.40;;;;;;4935132;28;20042;-63
2023/08/11 00:36:17;;;;;;;5.75;3.88;;;17.50;76.40;;;;;;4938720;28;20043;-62
2023/08/11 00:38:43;;;;;;;6.47;3.58;;;17.50;76.60;;;;;;4939941;28;20044;-62
2023/08/11 00:41:09;;;;;;;5.68;3.97;;;17.40;76.70;;;;;;4936763;28;20035;-62
2023/08/11 00:43:35;;;;;;;5.63;3.70;;;17.30;77.00;;;;;;4935752;28;20047;-62
2023/08/11 00:46:10;;;;;;;3.50;3.20;;;17.30;77.10;;;;;;4935772;28;20488;-62
2023/08/11 00:48:38;;;;;;;5.53;3.40;;;17.30;77.60;;;;;;4937782;28;20032;-62
2023/08/11 00:51:05;;;;;;;3.70;3.38;;;17.30;77.30;;;;;;4938856;28;20044;-62
2023/08/11 00:53:34;;;;;;;4.13;3.50;;;17.20;77.40;;;;;;4938221;28;20047;-62
2023/08/11 00:56:04;;;;;;;7.43;3.45;;;17.20;78.20;;;;;;4937208;28;20560;-64
2023/08/11 00:58:31;;;;;;;5.65;3.40;;;17.20;77.70;;;;;;4935601;28;20695;-62
2023/08/11 01:00:57;;;;;;;4.70;3.60;;;17.20;77.70;;;;;;4937926;28;20031;-60
2023/08/11 01:03:24;;;;;;;4.22;3.50;;;17.20;77.80;;;;;;4938534;28;20039;-62
2023/08/11 01:06:07;;;;;;;4.35;3.78;;;17.10;77.70;;;;;;4938074;28;20043;-63
2023/08/11 01:08:42;;;;;;;5.63;3.78;;;17.10;78.60;;;;;;4938634;28;20043;-62
2023/08/11 01:11:23;;;;;;;5.60;3.45;;;17.10;78.70;;;;;;4937583;28;20494;-62
2023/08/11 01:14:06;;;;;;;7.65;3.58;;;17.00;78.70;;;;;;4939484;28;20119;-62
2023/08/11 01:16:34;;;;;;;5.43;3.38;;;17.00;78.40;;;;;;4941860;28;20031;-62
2023/08/11 01:19:01;;;;;;;5.30;3.78;;;17.00;78.30;;;;;;4938681;28;20031;-62
2023/08/11 01:21:28;;;;;;;4.70;3.40;;;17.00;78.40;;;;;;4941148;28;20028;-61
2023/08/11 01:23:54;;;;;;;6.32;3.65;;;17.00;79.40;;;;;;4940194;28;20030;-65
2023/08/11 01:26:20;;;;;;;4.32;3.35;;;17.00;78.50;;;;;;4942371;28;20046;-62
2023/08/11 01:28:47;;;;;;;4.55;3.67;;;16.90;78.40;;;;;;4939207;28;20027;-62
2023/08/11 01:31:12;;;;;;;4.55;3.80;;;16.90;78.40;;;;;;4939795;28;20035;-62
2023/08/11 01:33:38;;;;;;;5.05;3.70;;;16.90;78.50;;;;;;4940813;28;20057;-62
2023/08/11 01:36:04;;;;;;;4.47;3.58;;;17.00;78.80;;;;;;4942412;28;20090;-63
2023/08/11 01:38:30;;;;;;;5.32;3.80;;;16.90;78.70;;;;;;4940286;28;20779;-62
2023/08/11 01:40:58;;;;;;;4.32;3.50;;;16.90;78.60;;;;;;4941823;28;20043;-62
2023/08/11 01:43:25;;;;;;;5.55;3.70;;;16.90;78.90;;;;;;4939345;28;20040;-62
2023/08/11 01:45:51;;;;;;;4.80;3.42;;;16.90;78.70;;;;;;4939400;28;20562;-61
2023/08/11 01:48:18;;;;;;;9.27;3.60;;;16.90;78.70;;;;;;4941083;28;20067;-62
2023/08/11 01:50:44;;;;;;;6.55;3.85;;;16.90;78.70;;;;;;4940107;28;20032;-62
2023/08/11 01:53:10;;;;;;;4.40;3.42;;;16.90;78.70;;;;;;4941680;28;20110;-61
2023/08/11 01:55:35;;;;;;;3.92;3.53;;;16.80;78.70;;;;;;4941001;28;20044;-62
2023/08/11 01:58:01;;;;;;;3.95;3.65;;;16.80;78.90;;;;;;4941699;28;20063;-63
2023/08/11 02:00:28;;;;;;;3.78;3.38;;;16.70;78.90;;;;;;4938775;28;20099;-63
2023/08/11 02:02:53;;;;;;;4.28;3.88;;;16.70;79.10;;;;;;4942052;28;20172;-63
2023/08/11 02:05:19;;;;;;;4.40;4.00;;;16.60;79.10;;;;;;4941085;28;20032;-61
2023/08/11 02:07:45;;;;;;;4.55;3.40;;;16.60;79.20;;;;;;4939366;28;20547;-62
2023/08/11 02:10:12;;;;;;;4.57;3.40;;;16.50;79.30;;;;;;4940759;28;20043;-62
2023/08/11 02:12:41;;;;;;;4.13;3.58;;;16.50;79.50;;;;;;4940102;28;20039;-62
2023/08/11 02:15:07;;;;;;;4.13;3.42;;;16.50;79.50;;;;;;4940404;28;20039;-62
2023/08/11 02:17:34;;;;;;;3.95;3.42;;;16.50;79.50;;;;;;4940200;28;20031;-62
2023/08/11 02:20:00;;;;;;;4.38;3.25;;;16.50;79.60;;;;;;4942122;28;21060;-62
2023/08/11 02:22:26;;;;;;;3.83;3.35;;;16.50;79.70;;;;;;4939495;28;20063;-62
2023/08/11 02:24:52;;;;;;;8.95;3.97;;;16.50;79.80;;;;;;4938420;28;20500;-63
2023/08/11 02:27:17;;;;;;;5.18;3.42;;;16.50;79.80;;;;;;4938887;28;20057;-61
2023/08/11 02:29:49;;;;;;;5.97;4.13;;;16.50;79.60;;;;;;4940760;28;21995;-62
2023/08/11 02:32:14;;;;;;;3.72;3.42;;;16.50;79.50;;;;;;4939962;28;20035;-63
2023/08/11 02:34:41;;;;;;;4.47;3.45;;;16.50;79.40;;;;;;4939337;28;20043;-62
2023/08/11 02:37:07;;;;;;;5.13;4.32;;;16.40;79.40;;;;;;4941396;28;20066;-62
2023/08/11 02:39:33;;;;;;;5.07;3.58;;;16.40;79.50;;;;;;4940353;28;20067;-62
2023/08/11 02:41:59;;;;;;;5.72;3.45;;;16.30;79.50;;;;;;4939499;28;20048;-63
2023/08/11 02:44:25;;;;;;;5.28;3.83;;;16.30;79.60;;;;;;4937306;28;20042;-61
2023/08/11 02:46:50;;;;;;;6.05;3.97;;;16.30;79.80;;;;;;4938402;28;20031;-62
2023/08/11 02:49:16;;;;;;;5.95;4.03;;;16.20;79.80;;;;;;4938629;28;20384;-62
2023/08/11 02:51:41;;;;;;;5.13;4.03;;;16.20;79.90;;;;;;4937492;28;20083;-62
2023/08/11 02:54:07;;;;;;;4.72;3.88;;;16.20;80.00;;;;;;4939418;28;22050;-62
2023/08/11 02:56:32;;;;;;;5.53;4.25;;;16.10;80.00;;;;;;4941109;28;20515;-61
2023/08/11 02:58:58;;;;;;;4.78;3.65;;;16.10;80.20;;;;;;4936171;28;20039;-62
2023/08/11 03:01:25;;;;;;;5.95;3.88;;;16.10;80.20;;;;;;4939663;28;20036;-62
2023/08/11 03:03:50;;;;;;;7.10;4.10;;;16.10;80.30;;;;;;4939462;28;20053;-62
2023/08/11 03:06:16;;;;;;;5.38;3.90;;;16.10;80.40;;;;;;4938440;28;20035;-60
2023/08/11 03:08:42;;;;;;;4.30;3.90;;;16.10;80.30;;;;;;4940475;28;20031;-62
2023/08/11 03:11:07;;;;;;;7.75;3.90;;;16.10;80.30;;;;;;4940354;28;22613;-62
2023/08/11 03:13:33;;;;;;;7.10;3.72;;;16.10;80.30;;;;;;4937992;28;20126;-62
2023/08/11 03:15:59;;;;;;;6.15;3.55;;;16.10;80.30;;;;;;4940391;28;20047;-62
2023/08/11 03:18:25;;;;;;;4.38;3.67;;;16.10;80.30;;;;;;4940088;28;20598;-62
2023/08/11 03:20:52;;;;;;;3.70;3.40;;;16.00;80.10;;;;;;4937741;28;20075;-62
2023/08/11 03:23:18;;;;;;;6.25;3.63;;;16.10;80.10;;;;;;4939099;29;20027;-62
2023/08/11 03:25:44;;;;;;;4.63;3.50;;;16.00;80.10;;;;;;4938203;28;20045;-63
2023/08/11 03:28:10;;;;;;;4.57;3.75;;;16.00;80.10;;;;;;4940259;28;20410;-61
2023/08/11 03:30:35;;;;;;;4.63;3.70;;;16.00;80.30;;;;;;4937016;28;20038;-63
2023/08/11 03:33:01;;;;;;;5.60;3.78;;;16.00;80.30;;;;;;4938973;28;20036;-62
2023/08/11 03:35:27;;;;;;;3.92;3.40;;;16.00;80.30;;;;;;4940454;28;20472;-62
2023/08/11 03:37:52;;;;;;;4.43;3.40;;;15.90;80.10;;;;;;4937703;28;20498;-62
2023/08/11 03:40:18;;;;;;;3.63;3.30;;;15.90;80.20;;;;;;4938191;28;20031;-61
2023/08/11 03:42:44;;;;;;;4.63;3.53;;;15.80;80.20;;;;;;4937292;28;20043;-62
2023/08/11 03:45:14;;;;;;;5.25;3.50;;;15.80;80.30;;;;;;4936818;28;20039;-62
2023/08/11 03:47:40;;;;;;;4.05;3.50;;;15.80;80.50;;;;;;4938057;28;20081;-62
2023/08/11 03:50:07;;;;;;;3.95;3.55;;;15.80;80.50;;;;;;4939264;28;20110;-62
2023/08/11 03:52:33;;;;;;;4.18;3.50;;;15.70;80.60;;;;;;4936874;28;20036;-63
2023/08/11 03:54:59;;;;;;;4.75;3.40;;;15.70;80.80;;;;;;4937289;29;20131;-62
2023/08/11 03:57:31;;;;;;;4.20;3.40;;;15.60;80.90;;;;;;5052495;27;20502;-63
2023/08/11 03:59:57;;;;;;;8.57;3.50;;;15.60;81.30;;;;;;5026025;28;20124;-63
2023/08/11 04:02:24;;;;;;;3.95;3.65;;;15.50;81.40;;;;;;5027896;28;20036;-64
2023/08/11 04:04:50;;;;;;;3.30;3.00;;;15.50;81.50;;;;;;5024046;28;20172;-64
2023/08/11 04:07:16;;;;;;;3.60;3.08;;;15.50;81.80;;;;;;5026406;28;20105;-64
2023/08/11 04:09:44;;;;;;;4.20;3.38;;;15.40;81.80;;;;;;5024749;28;20056;-63
2023/08/11 04:12:10;;;;;;;3.70;3.40;;;15.40;81.90;;;;;;5021908;28;20034;-64
2023/08/11 04:14:37;;;;;;;3.83;3.47;;;15.40;82.20;;;;;;5025078;28;20558;-62
2023/08/11 04:17:03;;;;;;;5.85;3.90;;;15.40;82.30;;;;;;5025095;28;20042;-64
2023/08/11 04:19:28;;;;;;;4.20;3.75;;;15.40;82.30;;;;;;5024008;28;20037;-63
2023/08/11 04:21:54;;;;;;;3.95;3.13;;;15.40;82.60;;;;;;5026786;28;20038;-63
2023/08/11 04:24:19;;;;;;;4.35;3.47;;;15.30;82.30;;;;;;5020570;28;20038;-63
2023/08/11 04:26:45;;;;;;;3.42;3.13;;;15.30;82.50;;;;;;5021476;28;20037;-63
2023/08/11 04:29:12;;;;;;;5.55;3.42;;;15.30;82.50;;;;;;5023062;28;20521;-61
2023/08/11 04:31:38;;;;;;;4.10;3.72;;;15.30;82.50;;;;;;5023257;28;20072;-63
2023/08/11 04:34:05;;;;;;;4.55;3.35;;;15.30;82.60;;;;;;5023563;28;20124;-63
2023/08/11 04:36:30;;;;;;;3.47;3.17;;;15.30;82.70;;;;;;5023246;28;20038;-62
2023/08/11 04:38:56;;;;;;;3.72;3.10;;;15.30;82.90;;;;;;5022368;28;20042;-64
2023/08/11 04:41:22;;;;;;;4.82;3.58;;;15.30;83.60;;;;;;5025315;28;20040;-61
2023/08/11 04:43:48;;;;;;;4.47;3.65;;;15.30;83.10;;;;;;5025320;28;20037;-63
2023/08/11 04:46:14;;;;;;;6.90;3.58;;;15.30;83.20;;;;;;5022115;28;20595;-63
2023/08/11 04:48:40;;;;;;;4.45;3.40;;;15.30;83.10;;;;;;5021632;28;20378;-61
2023/08/11 04:51:06;;;;;;;8.60;3.90;;;15.30;83.20;;;;;;5024947;28;20034;-62
2023/08/11 04:53:32;;;;;;;5.72;3.53;;;15.30;83.20;;;;;;5022828;28;20036;-63
2023/08/11 04:55:57;;;;;;;4.40;3.38;;;15.30;83.30;;;;;;5027828;28;20049;-61
2023/08/11 04:58:23;;;;;;;4.40;4.00;;;15.30;83.20;;;;;;5025850;28;20048;-63
2023/08/11 05:00:48;;;;;;;4.13;3.38;;;15.30;83.30;;;;;;5024329;28;20118;-63
2023/08/11 05:03:14;;;;;;;4.60;3.55;;;15.30;83.30;;;;;;5022797;28;20068;-62
2023/08/11 05:05:41;;;;;;;3.70;3.40;;;15.30;83.40;;;;;;5024047;28;20037;-62
2023/08/11 05:08:07;;;;;;;4.10;3.47;;;15.30;83.60;;;;;;5013634;28;20049;-63
2023/08/11 05:10:33;;;;;;;4.35;3.80;;;15.40;83.70;;;;;;5006666;28;20030;-63
2023/08/11 05:12:59;;;;;;;4.28;3.88;;;15.20;83.80;;;;;;5007511;28;20045;-63
2023/08/11 05:15:24;;;;;;;4.18;3.63;;;15.40;84.10;;;;;;5010692;28;20042;-63
2023/08/11 05:17:50;;;;;;;6.13;3.72;;;15.40;84.10;;;;;;4995183;28;20260;-63
2023/08/11 05:20:16;;;;;;;5.50;3.83;;;15.40;84.10;;;;;;5013603;28;20447;-63
2023/08/11 05:22:43;;;;;;;3.72;3.42;;;15.50;84.30;;;;;;5007446;28;20038;-63
2023/08/11 05:25:09;;;;;;;4.72;3.85;;;15.50;84.30;;;;;;5009592;28;20099;-62
2023/08/11 05:27:35;;;;;;;5.68;4.43;;;15.60;84.40;;;;;;5009388;28;20033;-63
2023/08/11 05:30:01;;;;;;;5.63;3.83;;;15.60;84.40;;;;;;5012286;28;20555;-63
2023/08/11 05:32:27;;;;;;;6.32;4.13;;;15.70;84.80;;;;;;5009927;28;20160;-60
2023/08/11 05:34:55;;;;;;;4.68;4.20;;;15.70;85.00;;;;;;5011679;28;20034;-63
2023/08/11 05:37:22;;;;;;;8.73;4.20;;;15.80;85.30;;;;;;5007761;28;20068;-62
2023/08/11 05:39:48;;;;;;;5.32;3.83;;;15.80;85.30;;;;;;5007540;28;20072;-61
2023/08/11 05:42:14;;;;;;;5.10;3.88;;;15.90;85.30;;;;;;5009661;28;20528;-62
2023/08/11 05:44:39;;;;;;;4.82;4.18;;;16.00;85.30;;;;;;5012805;28;20039;-63
2023/08/11 05:47:05;;;;;;;6.55;4.70;;;16.10;85.20;;;;;;5013837;28;20044;-63
2023/08/11 05:49:31;;;;;;;5.32;4.40;;;16.10;85.20;;;;;;5008668;28;20049;-63
2023/08/11 05:51:56;;;;;;;5.00;4.50;;;16.20;85.30;;;;;;5010724;28;20735;-62
2023/08/11 05:54:22;;;;;;;5.43;4.30;;;16.20;86.10;;;;;;4995219;28;20037;-64
2023/08/11 05:56:48;;;;;;;5.50;4.90;;;16.30;85.50;;;;;;5011747;28;20501;-64
2023/08/11 05:59:14;;;;;;;5.93;4.88;;;16.40;85.50;;;;;;5004702;28;20117;-63
2023/08/11 06:01:40;;;;;;;7.25;4.60;;;16.50;85.40;;;;;;5011670;28;20120;-63
2023/08/11 06:04:05;;;;;;;5.15;4.65;;;16.60;85.10;;;;;;5007539;28;20052;-62
2023/08/11 06:06:31;;;;;;;5.35;4.38;;;16.70;85.00;;;;;;5005785;28;20037;-62
2023/08/11 06:08:57;;;;;;;6.43;4.68;;;16.70;85.00;;;;;;5007208;28;20088;-63
2023/08/11 06:11:22;;;;;;;5.43;4.55;;;16.80;85.00;;;;;;5008216;28;20038;-62
2023/08/11 06:13:48;;;;;;;6.22;5.00;;;16.90;85.00;;;;;;5007891;28;20490;-61
2023/08/11 06:16:14;;;;;;;5.38;4.78;;;17.00;85.00;;;;;;5012453;28;20030;-63
2023/08/11 06:18:39;;;;;;;7.43;5.45;;;17.10;84.80;;;;;;5016091;28;20555;-62
2023/08/11 06:21:06;;;;;;;6.95;5.93;;;17.20;84.70;;;;;;5010620;28;20033;-62
2023/08/11 06:23:32;;;;;;;8.65;6.28;;;17.30;84.50;;;;;;5017059;28;20067;-61
2023/08/11 06:25:57;;;;;;;10.93;5.90;;;17.40;84.50;;;;;;5010948;28;20044;-62
2023/08/11 06:28:23;;;;;;;7.60;6.20;;;17.40;84.50;;;;;;5011580;28;20034;-62
2023/08/11 06:30:49;;;;;;;11.10;6.28;;;17.60;84.50;;;;;;5012688;28;20437;-63
2023/08/11 06:33:14;;;;;;;7.15;6.20;;;17.60;84.10;;;;;;4994385;28;20868;-64
2023/08/11 06:35:42;;;;;;;8.98;6.25;;;17.70;83.80;;;;;;4990354;28;20034;-63
2023/08/11 06:38:08;;;;;;;7.07;5.95;;;17.80;83.80;;;;;;5000708;28;20070;-64
2023/08/11 06:40:34;;;;;;;6.63;6.03;;;17.90;83.80;;;;;;5009306;28;20041;-61
2023/08/11 06:43:00;;;;;;;8.07;5.80;;;18.00;83.70;;;;;;5007111;28;20141;-64
2023/08/11 06:45:25;;;;;;;6.95;6.22;;;18.00;83.60;;;;;;5004440;28;20037;-63
2023/08/11 06:47:51;;;;;;;8.55;6.20;;;18.10;83.30;;;;;;4994937;28;20414;-63
2023/08/11 06:50:17;;;;;;;9.60;5.85;;;18.20;83.30;;;;;;5000669;28;20064;-64
2023/08/11 06:52:42;;;;;;;8.18;5.80;;;18.30;83.20;;;;;;5003181;28;20037;-62
2023/08/11 06:55:08;;;;;;;8.23;6.22;;;18.40;83.10;;;;;;5004831;28;20044;-64
2023/08/11 06:57:35;;;;;;;7.38;6.15;;;18.50;82.90;;;;;;5002058;28;20046;-62
2023/08/11 07:00:00;;;;;;;7.25;5.78;;;18.60;82.70;;;;;;4992141;28;20490;-62
2023/08/11 07:02:26;;;;;;;7.25;5.43;;;18.70;82.40;;;;;;5009193;28;20161;-63
2023/08/11 07:04:51;;;;;;;7.32;5.15;;;18.80;82.10;;;;;;5001193;28;20036;-63
2023/08/11 07:07:17;;;;;;;6.97;5.43;;;18.90;81.90;;;;;;4999672;28;20041;-64
2023/08/11 07:09:42;;;;;;;6.55;5.40;;;19.00;81.90;;;;;;4994410;28;20111;-63
2023/08/11 07:12:08;;;;;;;6.47;5.63;;;19.10;81.70;;;;;;4996919;28;20038;-64
2023/08/11 07:14:34;;;;;;;6.13;5.03;;;19.20;81.60;;;;;;5000071;28;20041;-64
2023/08/11 07:16:59;;;;;;;8.45;5.68;;;19.20;81.30;;;;;;5006368;28;20121;-64
2023/08/11 07:19:25;;;;;;;6.60;4.85;;;19.30;81.20;;;;;;5006955;28;20409;-63
2023/08/11 07:21:50;;;;;;;5.35;4.82;;;19.50;81.50;;;;;;5001506;28;20461;-65
2023/08/11 07:24:16;;;;;;;5.88;5.03;;;19.50;81.70;;;;;;4998711;28;20033;-64
2023/08/11 07:26:42;;;;;;;5.95;5.15;;;19.60;81.70;;;;;;5003257;28;20048;-64
2023/08/11 07:29:08;;;;;;;6.45;5.18;;;19.70;81.90;;;;;;5003395;28;20041;-64
2023/08/11 07:31:34;;;;;;;6.15;5.20;;;19.80;81.70;;;;;;5005017;28;20049;-64
2023/08/11 07:33:59;;;;;;;6.05;5.45;;;19.90;81.70;;;;;;4997964;28;20038;-64
2023/08/11 07:36:25;;;;;;;6.63;4.97;;;20.00;81.30;;;;;;4992773;28;20552;-64
2023/08/11 07:38:50;;;;;;;4.93;4.43;;;20.10;82.00;;;;;;4999893;28;20034;-64
2023/08/11 07:41:16;;;;;;;6.10;4.90;;;20.20;80.70;;;;;;5004725;28;20038;-64
2023/08/11 07:43:41;;;;;;;7.68;6.10;;;20.30;80.50;;;;;;5008420;28;20064;-63
2023/08/11 07:46:07;;;;;;;6.32;5.70;;;20.40;80.30;;;;;;5006597;28;20054;-64
2023/08/11 07:48:33;;;;;;;9.40;5.25;;;20.50;80.20;;;;;;5003706;28;20099;-65
2023/08/11 07:50:58;;;;;;;8.55;5.40;;;20.60;80.20;;;;;;5006116;28;20486;-64
2023/08/11 07:53:24;;;;;;;5.57;5.05;;;20.70;80.80;;;;;;5007663;28;20049;-65
2023/08/11 07:55:50;;;;;;;7.97;5.22;;;20.80;79.50;;;;;;5004077;28;20047;-65
2023/08/11 07:58:16;;;;;;;7.15;4.93;;;20.90;79.30;;;;;;5001893;28;20045;-64
2023/08/11 08:00:41;;;;;;;7.72;4.95;;;21.00;78.90;;;;;;5004607;28;20404;-65
2023/08/11 08:03:07;;;;;;;7.53;5.20;;;21.10;78.50;;;;;;5000216;28;20093;-65
2023/08/11 08:05:32;;;;;;;6.28;4.80;;;21.30;79.10;;;;;;5009717;28;20060;-65
2023/08/11 08:07:58;;;;;;;7.32;4.47;;;21.40;78.20;;;;;;5006904;28;20065;-65
2023/08/11 08:10:25;;;;;;;6.82;4.88;;;21.40;78.30;;;;;;5006581;28;20520;-66
2023/08/11 08:12:51;;;;;;;8.68;4.72;;;21.60;78.10;;;;;;5003067;28;20042;-64
2023/08/11 08:15:17;;;;;;;5.22;4.32;;;21.70;77.70;;;;;;4999525;28;20124;-65
2023/08/11 08:17:43;;;;;;;9.32;4.63;;;21.80;77.30;;;;;;5002927;28;20044;-64
2023/08/11 08:20:09;;;;;;;12.45;5.38;;;21.90;77.00;;;;;;5004013;28;20428;-64
2023/08/11 08:22:38;;;;;;;7.82;4.88;;;21.90;77.00;;;;;;5009963;28;20493;-63
2023/08/11 08:25:06;;;;;;;6.25;4.53;;;22.10;76.90;;;;;;5015428;28;20559;-64
2023/08/11 08:27:36;;;;;;;7.10;4.47;;;22.20;77.10;;;;;;5012755;28;20080;-64
2023/08/11 08:30:02;;;;;;;11.15;3.92;;;22.30;76.80;;;;;;5013248;28;20034;-64
2023/08/11 08:32:29;;;;;;;6.43;4.20;;;22.40;76.50;;;;;;5011669;28;20040;-64
2023/08/11 08:34:55;;;;;;;6.97;4.05;;;22.50;76.00;;;;;;5012582;28;20500;-64
2023/08/11 08:37:20;;;;;;;7.88;3.92;;;22.60;76.70;;;;;;5010689;28;21572;-63
2023/08/11 08:39:47;;;;;;;5.80;4.25;;;22.70;75.80;;;;;;5011238;28;20053;-64
2023/08/11 08:42:14;;;;;;;7.07;4.15;;;22.80;75.50;;;;;;5011949;28;20033;-63
2023/08/11 08:44:41;;;;;;;5.95;3.78;;;23.00;75.10;;;;;;5017184;28;20520;-66
2023/08/11 08:47:07;;;;;;;6.18;3.80;;;23.10;74.90;;;;;;5017176;28;20044;-65
2023/08/11 08:49:36;;;;;;;7.20;3.67;;;23.20;74.70;;;;;;5017129;28;20067;-65
2023/08/11 08:52:02;;;;;;;6.65;4.15;;;23.30;74.50;;;;;;5016599;28;20722;-65
2023/08/11 08:54:28;;;;;;;7.57;4.03;;;23.40;74.40;;;;;;5016634;28;20136;-65
2023/08/11 08:56:56;;;;;;;9.05;3.72;;;23.50;74.00;;;;;;5015463;28;20046;-64
2023/08/11 08:59:22;;;;;;;5.90;4.03;;;23.60;73.60;;;;;;5014166;28;20046;-65
2023/08/11 09:01:50;;;;;;;6.80;3.63;;;23.80;73.10;;;;;;5016803;28;20046;-65
2023/08/11 09:04:16;;;;;;;11.82;4.28;;;23.80;73.00;;;;;;5017909;28;20041;-64
2023/08/11 09:06:42;;;;;;;6.38;3.75;;;24.00;73.10;;;;;;5011954;28;20034;-64
2023/08/11 09:09:09;;;;;;;6.07;4.00;;;24.10;72.70;;;;;;5016859;28;20057;-64
2023/08/11 09:11:38;;;;;;;6.85;3.60;;;24.20;72.40;;;;;;5012330;28;20322;-64
2023/08/11 09:14:04;;;;;;;6.63;3.20;;;24.30;72.00;;;;;;4985438;28;20264;-64
2023/08/11 09:16:35;;;;;;;5.65;3.85;;;24.40;71.60;;;;;;5016237;28;20555;-64
2023/08/11 09:19:02;;;;;;;7.88;3.60;;;24.50;71.60;;;;;;5012463;28;20030;-65
2023/08/11 09:21:28;;;;;;;5.35;3.38;;;24.60;71.20;;;;;;5014588;28;20043;-65
2023/08/11 09:23:56;;;;;;;6.80;3.53;;;24.70;71.10;;;;;;5016140;28;20032;-64
2023/08/11 09:26:23;;;;;;;5.70;3.80;;;24.80;71.00;;;;;;5015352;28;20159;-64
2023/08/11 09:28:50;;;;;;;5.10;3.30;;;25.00;70.70;;;;;;5013398;28;20041;-63
2023/08/11 09:31:16;;;;;;;6.05;3.70;;;25.00;69.90;;;;;;5012219;28;20034;-65
2023/08/11 09:33:41;;;;;;;8.90;3.50;;;25.10;69.50;;;;;;5015626;28;20539;-64
2023/08/11 09:36:08;;;;;;;5.05;3.70;;;25.30;68.60;;;;;;5008755;28;20038;-64
2023/08/11 09:38:34;;;;;;;9.35;3.60;;;25.30;68.00;;;;;;5010033;28;20034;-65
2023/08/11 09:41:05;;;;;;;6.70;3.42;;;25.50;68.30;;;;;;5009705;28;20037;-64
2023/08/11 09:43:31;;;;;;;8.65;3.67;;;25.60;68.20;;;;;;5017729;28;20532;-64
2023/08/11 09:45:59;;;;;;;5.68;3.28;;;25.60;67.50;;;;;;5017349;28;20042;-64
2023/08/11 09:48:28;;;;;;;7.53;3.25;;;25.70;68.00;;;;;;5016643;28;20050;-64
2023/08/11 09:50:56;;;;;;;5.75;3.45;;;25.80;67.60;;;;;;5015586;28;20038;-64
2023/08/11 09:53:23;;;;;;;3.75;3.25;;;25.90;68.10;;;;;;5015783;28;20230;-64
2023/08/11 09:55:49;;;;;;;7.70;3.60;;;26.00;66.30;;;;;;5006950;28;20046;-64
2023/08/11 09:58:18;;;;;;;5.55;3.60;;;26.10;65.90;;;;;;5000925;28;20048;-64
2023/08/11 10:00:46;;;;;;;7.55;3.30;;;26.10;65.10;;;;;;5015055;28;20033;-64
2023/08/11 10:03:18;;;;;;;4.00;2.85;;;26.20;65.30;;;;;;5014448;28;20454;-64
2023/08/11 10:05:47;;;;;;;6.03;3.03;;;26.30;64.70;;;;;;5016065;28;20049;-64
2023/08/11 10:08:23;;;;;;;6.13;3.33;;;26.40;64.80;;;;;;5012393;28;20132;-64
2023/08/11 10:10:49;;;;;;;6.03;3.13;;;26.50;63.70;;;;;;5010795;28;20045;-64
2023/08/11 10:13:19;;;;;;;3.22;2.92;;;26.60;64.20;;;;;;5015598;28;20429;-65
2023/08/11 10:15:45;;;;;;;6.15;3.10;;;26.70;64.00;;;;;;5015079;28;20038;-64
2023/08/11 10:18:11;;;;;;;4.72;2.75;;;26.80;63.50;;;;;;5015415;28;20040;-65
2023/08/11 10:20:37;;;;;;;7.38;2.88;;;26.80;63.10;;;;;;5013341;28;20226;-64
2023/08/11 10:23:04;;;;;;;8.25;3.30;;;26.90;63.30;;;;;;5011560;28;20034;-65
2023/08/11 10:25:30;;;;;;;5.30;2.53;;;27.00;62.80;;;;;;5015393;28;20108;-65
2023/08/11 10:27:57;;;;;;;6.47;2.72;;;27.10;62.20;;;;;;5016200;28;20033;-64
2023/08/11 10:30:24;;;;;;;4.88;2.80;;;27.20;61.70;;;;;;5015041;28;20045;-65
2023/08/11 10:32:56;;;;;;;3.38;2.22;;;27.30;62.00;;;;;;5014547;28;20574;-63
2023/08/11 10:35:26;;;;;;;4.20;2.40;;;27.40;61.30;;;;;;4999875;28;20517;-64
2023/08/11 10:37:59;;;;;;;4.53;2.50;;;27.50;60.80;;;;;;5014714;28;20112;-64
2023/08/11 10:40:39;;;;;;;3.83;2.30;;;27.50;59.60;;;;;;5011450;28;20449;-65
2023/08/11 10:43:06;;;;;;;5.82;2.38;;;27.60;59.40;;;;;;5014052;28;20030;-65
2023/08/11 10:45:36;;;;;;;3.05;2.50;;;27.70;59.70;;;;;;5012479;28;20066;-65
2023/08/11 10:48:09;;;;;;;2.92;2.42;;;27.70;59.00;;;;;;5011100;28;20096;-65
2023/08/11 10:50:37;;;;;;;4.13;2.38;;;27.80;59.20;;;;;;5011871;28;20075;-65
2023/08/11 10:53:16;;;;;;;3.67;2.47;;;27.80;59.00;;;;;;5007359;28;20052;-65
2023/08/11 10:55:42;;;;;;;3.58;2.40;;;27.90;58.10;;;;;;5013347;28;20153;-65
2023/08/11 10:58:12;;;;;;;3.70;2.40;;;27.90;58.90;;;;;;5012647;28;20489;-65
2023/08/11 11:00:38;;;;;;;2.97;2.63;;;28.00;58.10;;;;;;5013213;28;20038;-65
2023/08/11 11:03:04;;;;;;;6.47;2.60;;;28.00;58.20;;;;;;5004241;28;20030;-65
2023/08/11 11:05:30;;;;;;;6.00;2.30;;;28.10;58.90;;;;;;5010574;28;20064;-65
2023/08/11 11:07:56;;;;;;;6.03;2.40;;;28.10;58.50;;;;;;5006860;28;20052;-64
2023/08/11 11:10:21;;;;;;;3.95;2.53;;;28.20;57.80;;;;;;5007001;28;20498;-65
2023/08/11 11:12:47;;;;;;;4.13;1.95;;;28.20;57.40;;;;;;5008516;28;20049;-64
2023/08/11 11:15:12;;;;;;;3.28;2.15;;;28.30;57.90;;;;;;5011836;28;20571;-65
2023/08/11 11:17:38;;;;;;;5.90;2.88;;;28.30;57.30;;;;;;5014891;28;20460;-65
2023/08/11 11:20:05;;;;;;;5.60;2.50;;;28.40;57.00;;;;;;5015002;28;20041;-65
2023/08/11 11:22:30;;;;;;;2.70;2.35;;;28.40;57.10;;;;;;5014153;28;20128;-65
2023/08/11 11:25:01;;;;;;;4.35;2.42;;;28.40;56.90;;;;;;5015598;28;20124;-65
2023/08/11 11:27:26;;;;;;;11.10;4.63;;;28.50;56.80;;;;;;5013522;28;20060;-65
2023/08/11 11:29:58;;;;;;;3.95;2.58;;;28.50;57.30;;;;;;5015412;28;20065;-65
2023/08/11 11:32:24;;;;;;;3.17;2.33;;;28.50;57.30;;;;;;5013079;28;22624;-65
2023/08/11 11:34:50;;;;;;;3.70;2.28;;;28.60;57.40;;;;;;5012465;28;20132;-65
2023/08/11 11:37:15;;;;;;;3.92;2.03;;;28.60;57.10;;;;;;5015096;28;20069;-65
2023/08/11 11:39:42;;;;;;;5.60;2.45;;;28.70;56.30;;;;;;5012143;28;20044;-65
2023/08/11 11:42:10;;;;;;;3.70;2.53;;;28.70;55.70;;;;;;5013450;28;20068;-66
2023/08/11 11:44:36;;;;;;;4.07;2.30;;;28.80;55.20;;;;;;5014552;28;20034;-66
2023/08/11 11:47:05;;;;;;;2.28;2.08;;;28.80;56.00;;;;;;5013991;28;20584;-65
2023/08/11 11:49:31;;;;;;;2.60;2.13;;;28.80;55.50;;;;;;5014018;28;20124;-65
2023/08/11 11:52:00;;;;;;;4.38;2.50;;;28.90;55.50;;;;;;5014193;28;20128;-65
2023/08/11 11:54:30;;;;;;;4.07;2.35;;;28.90;54.90;;;;;;5011781;28;20030;-65
2023/08/11 11:56:58;;;;;;;2.53;2.33;;;28.90;54.90;;;;;;5012546;28;20042;-65
2023/08/11 11:59:26;;;;;;;3.67;2.17;;;28.80;54.10;;;;;;5013494;28;20061;-65
2023/08/11 12:01:52;;;;;;;3.00;2.65;;;28.90;54.90;;;;;;5010783;28;20042;-65
2023/08/11 12:04:17;;;;;;;2.15;2.03;;;28.90;54.40;;;;;;5013180;28;20032;-64
2023/08/11 12:06:43;;;;;;;3.13;2.30;;;28.90;54.80;;;;;;5013274;28;20045;-64
2023/08/11 12:09:12;;;;;;;3.30;2.28;;;28.90;54.50;;;;;;5011611;28;20117;-65
2023/08/11 12:11:41;;;;;;;4.80;2.47;;;28.90;54.40;;;;;;5014273;28;20030;-65
2023/08/11 12:14:11;;;;;;;2.63;1.77;;;29.00;54.80;;;;;;5016295;28;20026;-64
2023/08/11 12:16:37;;;;;;;2.22;2.03;;;29.00;54.60;;;;;;5016059;28;20042;-65
2023/08/11 12:19:03;;;;;;;1.85;1.75;;;29.00;54.70;;;;;;5019711;28;20051;-65
2023/08/11 12:21:29;;;;;;;2.55;2.35;;;29.10;54.70;;;;;;5019971;28;20608;-65
2023/08/11 12:23:55;;;;;;;2.67;2.00;;;29.10;55.20;;;;;;5020094;28;20037;-65
2023/08/11 12:26:20;;;;;;;2.38;2.05;;;29.20;54.90;;;;;;5019375;28;20034;-65
2023/08/11 12:28:46;;;;;;;3.25;2.22;;;29.20;54.80;;;;;;5016644;28;20046;-65
2023/08/11 12:31:12;;;;;;;4.28;2.10;;;29.30;53.70;;;;;;5016111;28;20034;-65
2023/08/11 12:33:39;;;;;;;3.75;2.10;;;29.30;54.10;;;;;;5016999;28;20509;-65
2023/08/11 12:36:05;;;;;;;4.53;2.20;;;29.40;54.10;;;;;;5016594;28;20051;-65
2023/08/11 12:38:31;;;;;;;2.45;1.98;;;29.40;54.00;;;;;;5016643;28;20037;-65
2023/08/11 12:40:57;;;;;;;4.88;1.95;;;29.50;54.00;;;;;;5016187;28;20029;-65
2023/08/11 12:43:23;;;;;;;2.75;1.77;;;29.50;53.70;;;;;;5017677;28;20056;-65